sensor_id;sensor_type;location;lat;lon;timestamp;temperature;humidity
42907;DHT22;28552;51.146;6.576;2023-09-18T00:02:21;19.30;99.90
42907;DHT22;28552;51.146;6.576;2023-09-18T00:05:22;19.30;99.90
42907;DHT22;28552;51.146;6.576;2023-09-18T00:08:23;19.30;99.90
42907;DHT22;28552;51.146;6.576;2023-09-18T00:11:23;19.30;99.90
42907;DHT22;28552;51.146;6.576;2023-09-18T00:14:24;19.30;99.90
42907;DHT22;28552;51.146;6.576;2023-09-18T00:17:25;19.30;99.90
42907;DHT22;28552;51.146;6.576;2023-09-18T00:20:26;19.30;99.90
42907;DHT22;28552;51.146;6.576;2023-09-18T00:23:27;19.40;99.90
42907;DHT22;28552;51.146;6.576;2023-09-18T00:26:27;19.40;99.90
42907;DHT22;28552;51.146;6.576;2023-09-18T00:29:28;19.40;99.90
42907;DHT22;28552;51.146;6.576;2023-09-18T00:32:29;19.50;99.90
42907;DHT22;28552;51.146;6.576;2023-09-18T00:35:29;19.50;99.90
42907;DHT22;28552;51.146;6.576;2023-09-18T00:38:30;19.50;99.90
42907;DHT22;28552;51.146;6.576;2023-09-18T00:41:31;19.60;99.90
42907;DHT22;28552;51.146;6.576;2023-09-18T00:44:31;19.60;99.90
42907;DHT22;28552;51.146;6.576;2023-09-18T00:47:32;19.60;99.90
42907;DHT22;28552;51.146;6.576;2023-09-18T00:50:32;19.60;99.90
42907;DHT22;28552;51.146;6.576;2023-09-18T00:53:33;19.60;99.90
42907;DHT22;28552;51.146;6.576;2023-09-18T00:56:34;19.70;99.90
42907;DHT22;28552;51.146;6.576;2023-09-18T00:59:35;19.70;99.90
42907;DHT22;28552;51.146;6.576;2023-09-18T01:02:35;19.70;99.90
42907;DHT22;28552;51.146;6.576;2023-09-18T01:05:36;19.70;99.90
42907;DHT22;28552;51.146;6.576;2023-09-18T01:08:36;19.70;99.90
42907;DHT22;28552;51.146;6.576;2023-09-18T01:15:10;19.70;99.90
42907;DHT22;28552;51.146;6.576;2023-09-18T01:18:12;19.70;99.90
42907;DHT22;28552;51.146;6.576;2023-09-18T01:21:13;19.70;99.90
42907;DHT22;28552;51.146;6.576;2023-09-18T01:24:14;19.70;99.90
42907;DHT22;28552;51.146;6.576;2023-09-18T01:27:17;19.70;99.90
42907;DHT22;28552;51.146;6.576;2023-09-18T01:30:18;19.70;99.90
42907;DHT22;28552;51.146;6.576;2023-09-18T01:33:19;19.70;99.90
42907;DHT22;28552;51.146;6.576;2023-09-18T01:36:21;19.70;99.90
42907;DHT22;28552;51.146;6.576;2023-09-18T01:39:21;19.70;99.90
42907;DHT22;28552;51.146;6.576;2023-09-18T01:42:23;19.70;99.90
42907;DHT22;28552;51.146;6.576;2023-09-18T01:45:23;19.70;99.90
42907;DHT22;28552;51.146;6.576;2023-09-18T01:48:24;19.60;99.90
42907;DHT22;28552;51.146;6.576;2023-09-18T01:51:24;19.60;99.90
42907;DHT22;28552;51.146;6.576;2023-09-18T01:54:25;19.50;99.90
42907;DHT22;28552;51.146;6.576;2023-09-18T01:57:26;19.50;99.90
42907;DHT22;28552;51.146;6.576;2023-09-18T02:00:26;19.50;99.90
42907;DHT22;28552;51.146;6.576;2023-09-18T02:03:27;19.50;99.90
42907;DHT22;28552;51.146;6.576;2023-09-18T02:06:27;19.50;99.90
42907;DHT22;28552;51.146;6.576;2023-09-18T02:09:28;19.50;99.90
42907;DHT22;28552;51.146;6.576;2023-09-18T02:12:28;19.50;99.90
42907;DHT22;28552;51.146;6.576;2023-09-18T02:15:29;19.50;99.90
42907;DHT22;28552;51.146;6.576;2023-09-18T02:18:31;19.50;99.90
42907;DHT22;28552;51.146;6.576;2023-09-18T02:21:32;19.50;99.90
42907;DHT22;28552;51.146;6.576;2023-09-18T02:24:32;19.50;99.90
42907;DHT22;28552;51.146;6.576;2023-09-18T02:27:33;19.50;99.90
42907;DHT22;28552;51.146;6.576;2023-09-18T02:30:33;19.40;99.90
42907;DHT22;28552;51.146;6.576;2023-09-18T02:33:34;19.50;99.90
42907;DHT22;28552;51.146;6.576;2023-09-18T02:36:35;19.50;99.90
42907;DHT22;28552;51.146;6.576;2023-09-18T02:39:35;19.50;99.90
42907;DHT22;28552;51.146;6.576;2023-09-18T02:42:35;19.50;99.90
42907;DHT22;28552;51.146;6.576;2023-09-18T02:45:36;19.50;99.90
42907;DHT22;28552;51.146;6.576;2023-09-18T02:48:36;19.60;99.90
42907;DHT22;28552;51.146;6.576;2023-09-18T02:51:37;19.60;99.90
42907;DHT22;28552;51.146;6.576;2023-09-18T02:54:38;19.60;99.90
42907;DHT22;28552;51.146;6.576;2023-09-18T02:57:38;19.70;99.90
42907;DHT22;28552;51.146;6.576;2023-09-18T03:00:43;19.70;99.90
42907;DHT22;28552;51.146;6.576;2023-09-18T03:03:44;19.60;99.90
42907;DHT22;28552;51.146;6.576;2023-09-18T03:06:45;19.60;99.90
42907;DHT22;28552;51.146;6.576;2023-09-18T03:09:45;19.60;99.90
42907;DHT22;28552;51.146;6.576;2023-09-18T03:12:48;19.60;99.90
42907;DHT22;28552;51.146;6.576;2023-09-18T03:15:48;19.60;99.90
42907;DHT22;28552;51.146;6.576;2023-09-18T03:18:49;19.50;99.90
42907;DHT22;28552;51.146;6.576;2023-09-18T03:21:49;19.60;99.90
42907;DHT22;28552;51.146;6.576;2023-09-18T03:24:50;19.50;99.90
42907;DHT22;28552;51.146;6.576;2023-09-18T03:27:53;19.50;99.90
42907;DHT22;28552;51.146;6.576;2023-09-18T03:30:53;19.50;99.90
42907;DHT22;28552;51.146;6.576;2023-09-18T03:33:55;19.50;99.90
42907;DHT22;28552;51.146;6.576;2023-09-18T03:36:55;19.50;99.90
42907;DHT22;28552;51.146;6.576;2023-09-18T03:39:56;19.50;99.90
42907;DHT22;28552;51.146;6.576;2023-09-18T03:42:56;19.50;99.90
42907;DHT22;28552;51.146;6.576;2023-09-18T03:46:05;19.50;99.90
42907;DHT22;28552;51.146;6.576;2023-09-18T03:49:06;19.50;99.90
42907;DHT22;28552;51.146;6.576;2023-09-18T03:52:07;19.60;99.90
42907;DHT22;28552;51.146;6.576;2023-09-18T03:55:08;19.50;99.90
42907;DHT22;28552;51.146;6.576;2023-09-18T03:58:08;19.50;99.90
42907;DHT22;28552;51.146;6.576;2023-09-18T04:01:10;19.60;99.90
42907;DHT22;28552;51.146;6.576;2023-09-18T04:04:11;19.60;99.90
42907;DHT22;28552;51.146;6.576;2023-09-18T04:07:11;19.60;99.90
42907;DHT22;28552;51.146;6.576;2023-09-18T04:10:16;19.60;99.90
42907;DHT22;28552;51.146;6.576;2023-09-18T04:13:23;19.50;99.90
42907;DHT22;28552;51.146;6.576;2023-09-18T04:16:23;19.60;99.90
42907;DHT22;28552;51.146;6.576;2023-09-18T04:19:24;19.60;99.90
42907;DHT22;28552;51.146;6.576;2023-09-18T04:22:24;19.60;99.90
42907;DHT22;28552;51.146;6.576;2023-09-18T04:25:25;19.50;99.90
42907;DHT22;28552;51.146;6.576;2023-09-18T04:28:26;19.50;99.90
42907;DHT22;28552;51.146;6.576;2023-09-18T04:31:27;19.50;99.90
42907;DHT22;28552;51.146;6.576;2023-09-18T04:34:28;19.50;99.90
42907;DHT22;28552;51.146;6.576;2023-09-18T04:37:28;19.50;99.90
42907;DHT22;28552;51.146;6.576;2023-09-18T04:40:29;19.50;99.90
42907;DHT22;28552;51.146;6.576;2023-09-18T04:46:52;19.50;99.90
42907;DHT22;28552;51.146;6.576;2023-09-18T04:49:52;19.50;99.90
42907;DHT22;28552;51.146;6.576;2023-09-18T04:52:53;19.50;99.90
42907;DHT22;28552;51.146;6.576;2023-09-18T04:55:55;19.50;99.90
42907;DHT22;28552;51.146;6.576;2023-09-18T04:58:55;19.50;99.90
42907;DHT22;28552;51.146;6.576;2023-09-18T05:01:58;19.40;99.90
42907;DHT22;28552;51.146;6.576;2023-09-18T05:04:58;19.40;99.90
42907;DHT22;28552;51.146;6.576;2023-09-18T05:08:01;19.30;99.90
42907;DHT22;28552;51.146;6.576;2023-09-18T05:11:01;19.30;99.90
42907;DHT22;28552;51.146;6.576;2023-09-18T05:14:02;19.20;99.90
42907;DHT22;28552;51.146;6.576;2023-09-18T05:17:03;19.20;99.90
42907;DHT22;28552;51.146;6.576;2023-09-18T05:20:04;19.20;99.90
42907;DHT22;28552;51.146;6.576;2023-09-18T05:23:05;19.20;99.90
42907;DHT22;28552;51.146;6.576;2023-09-18T05:26:06;19.20;99.90
42907;DHT22;28552;51.146;6.576;2023-09-18T05:29:09;19.20;99.90
42907;DHT22;28552;51.146;6.576;2023-09-18T05:32:10;19.10;99.90
42907;DHT22;28552;51.146;6.576;2023-09-18T05:35:11;19.10;99.90
42907;DHT22;28552;51.146;6.576;2023-09-18T05:38:13;19.10;99.90
42907;DHT22;28552;51.146;6.576;2023-09-18T05:41:14;19.00;99.90
42907;DHT22;28552;51.146;6.576;2023-09-18T05:44:15;19.10;99.90
42907;DHT22;28552;51.146;6.576;2023-09-18T05:47:16;19.10;99.90
42907;DHT22;28552;51.146;6.576;2023-09-18T05:50:16;19.10;99.90
42907;DHT22;28552;51.146;6.576;2023-09-18T05:53:17;19.20;99.90
42907;DHT22;28552;51.146;6.576;2023-09-18T05:56:18;19.20;99.90
42907;DHT22;28552;51.146;6.576;2023-09-18T05:59:18;19.20;99.90
42907;DHT22;28552;51.146;6.576;2023-09-18T06:02:20;19.20;99.90
42907;DHT22;28552;51.146;6.576;2023-09-18T06:05:21;19.20;99.90
42907;DHT22;28552;51.146;6.576;2023-09-18T06:08:21;19.30;99.90
42907;DHT22;28552;51.146;6.576;2023-09-18T06:11:24;19.30;99.90
42907;DHT22;28552;51.146;6.576;2023-09-18T06:14:24;19.30;99.90
42907;DHT22;28552;51.146;6.576;2023-09-18T06:17:25;19.40;99.90
42907;DHT22;28552;51.146;6.576;2023-09-18T06:20:25;19.40;99.90
42907;DHT22;28552;51.146;6.576;2023-09-18T06:23:26;19.40;99.90
42907;DHT22;28552;51.146;6.576;2023-09-18T06:26:26;19.50;99.90
42907;DHT22;28552;51.146;6.576;2023-09-18T06:29:28;19.50;99.90
42907;DHT22;28552;51.146;6.576;2023-09-18T06:32:28;19.50;99.90
42907;DHT22;28552;51.146;6.576;2023-09-18T06:35:29;19.50;99.90
42907;DHT22;28552;51.146;6.576;2023-09-18T06:38:30;19.60;99.90
42907;DHT22;28552;51.146;6.576;2023-09-18T06:41:30;19.60;99.90
42907;DHT22;28552;51.146;6.576;2023-09-18T06:44:31;19.60;99.90
42907;DHT22;28552;51.146;6.576;2023-09-18T06:47:31;19.70;99.90
42907;DHT22;28552;51.146;6.576;2023-09-18T06:50:32;19.70;99.90
42907;DHT22;28552;51.146;6.576;2023-09-18T06:53:33;19.70;99.90
42907;DHT22;28552;51.146;6.576;2023-09-18T06:56:34;19.80;99.90
42907;DHT22;28552;51.146;6.576;2023-09-18T06:59:34;19.90;99.90
42907;DHT22;28552;51.146;6.576;2023-09-18T07:02:35;19.90;99.90
42907;DHT22;28552;51.146;6.576;2023-09-18T07:05:35;20.00;99.90
42907;DHT22;28552;51.146;6.576;2023-09-18T07:08:36;20.00;99.90
42907;DHT22;28552;51.146;6.576;2023-09-18T07:11:36;20.00;99.90
42907;DHT22;28552;51.146;6.576;2023-09-18T07:14:37;20.00;99.90
42907;DHT22;28552;51.146;6.576;2023-09-18T07:17:38;20.00;99.90
42907;DHT22;28552;51.146;6.576;2023-09-18T07:20:38;20.00;99.90
42907;DHT22;28552;51.146;6.576;2023-09-18T07:23:40;20.00;99.90
42907;DHT22;28552;51.146;6.576;2023-09-18T07:26:40;20.00;99.90
42907;DHT22;28552;51.146;6.576;2023-09-18T07:29:41;20.10;99.90
42907;DHT22;28552;51.146;6.576;2023-09-18T07:32:42;20.00;99.90
42907;DHT22;28552;51.146;6.576;2023-09-18T07:35:47;20.00;99.90
42907;DHT22;28552;51.146;6.576;2023-09-18T07:38:48;20.10;99.90
42907;DHT22;28552;51.146;6.576;2023-09-18T07:41:48;20.00;99.90
42907;DHT22;28552;51.146;6.576;2023-09-18T07:44:49;20.00;99.90
42907;DHT22;28552;51.146;6.576;2023-09-18T07:47:50;20.00;99.90
42907;DHT22;28552;51.146;6.576;2023-09-18T07:50:51;20.00;99.90
42907;DHT22;28552;51.146;6.576;2023-09-18T07:53:51;20.00;99.90
42907;DHT22;28552;51.146;6.576;2023-09-18T07:56:52;20.10;99.90
42907;DHT22;28552;51.146;6.576;2023-09-18T07:59:52;20.10;99.90
42907;DHT22;28552;51.146;6.576;2023-09-18T08:02:55;20.10;99.90
42907;DHT22;28552;51.146;6.576;2023-09-18T08:06:01;20.10;99.90
42907;DHT22;28552;51.146;6.576;2023-09-18T08:09:01;20.10;99.90
42907;DHT22;28552;51.146;6.576;2023-09-18T08:12:03;20.20;99.90
42907;DHT22;28552;51.146;6.576;2023-09-18T08:15:04;20.20;99.90
42907;DHT22;28552;51.146;6.576;2023-09-18T08:18:05;20.30;99.90
42907;DHT22;28552;51.146;6.576;2023-09-18T08:21:06;20.30;99.90
42907;DHT22;28552;51.146;6.576;2023-09-18T08:24:09;20.40;99.90
42907;DHT22;28552;51.146;6.576;2023-09-18T08:27:10;20.50;99.90
42907;DHT22;28552;51.146;6.576;2023-09-18T08:30:13;20.50;99.90
42907;DHT22;28552;51.146;6.576;2023-09-18T08:33:14;20.50;99.90
42907;DHT22;28552;51.146;6.576;2023-09-18T08:36:14;20.50;99.90
42907;DHT22;28552;51.146;6.576;2023-09-18T08:39:16;20.50;99.90
42907;DHT22;28552;51.146;6.576;2023-09-18T08:42:17;20.50;99.90
42907;DHT22;28552;51.146;6.576;2023-09-18T08:45:23;20.50;99.90
42907;DHT22;28552;51.146;6.576;2023-09-18T08:48:26;20.50;99.90
42907;DHT22;28552;51.146;6.576;2023-09-18T08:51:29;20.60;99.90
42907;DHT22;28552;51.146;6.576;2023-09-18T08:54:30;20.60;99.90
42907;DHT22;28552;51.146;6.576;2023-09-18T08:57:32;20.70;99.90
42907;DHT22;28552;51.146;6.576;2023-09-18T09:00:33;20.70;99.90
42907;DHT22;28552;51.146;6.576;2023-09-18T09:03:37;20.80;99.90
42907;DHT22;28552;51.146;6.576;2023-09-18T09:06:38;20.80;99.90
42907;DHT22;28552;51.146;6.576;2023-09-18T09:09:39;20.80;99.90
42907;DHT22;28552;51.146;6.576;2023-09-18T09:12:49;20.90;99.90
42907;DHT22;28552;51.146;6.576;2023-09-18T09:15:52;20.90;99.90
42907;DHT22;28552;51.146;6.576;2023-09-18T09:18:54;21.00;99.90
42907;DHT22;28552;51.146;6.576;2023-09-18T09:21:55;21.00;99.90
42907;DHT22;28552;51.146;6.576;2023-09-18T09:24:56;21.00;99.90
42907;DHT22;28552;51.146;6.576;2023-09-18T09:27:59;21.10;99.90
42907;DHT22;28552;51.146;6.576;2023-09-18T09:31:01;21.10;99.90
42907;DHT22;28552;51.146;6.576;2023-09-18T09:34:03;21.10;99.90
42907;DHT22;28552;51.146;6.576;2023-09-18T09:37:05;21.10;99.90
42907;DHT22;28552;51.146;6.576;2023-09-18T09:40:07;21.10;99.90
42907;DHT22;28552;51.146;6.576;2023-09-18T09:43:11;21.20;99.90
42907;DHT22;28552;51.146;6.576;2023-09-18T09:46:16;21.20;99.90
42907;DHT22;28552;51.146;6.576;2023-09-18T09:49:18;21.20;99.90
42907;DHT22;28552;51.146;6.576;2023-09-18T09:52:20;21.20;99.90
42907;DHT22;28552;51.146;6.576;2023-09-18T09:55:24;21.20;99.90
42907;DHT22;28552;51.146;6.576;2023-09-18T09:58:27;21.30;99.90
42907;DHT22;28552;51.146;6.576;2023-09-18T10:01:31;21.30;99.90
42907;DHT22;28552;51.146;6.576;2023-09-18T10:04:32;21.20;99.90
42907;DHT22;28552;51.146;6.576;2023-09-18T10:07:35;21.30;99.90
42907;DHT22;28552;51.146;6.576;2023-09-18T10:10:43;21.30;99.90
42907;DHT22;28552;51.146;6.576;2023-09-18T10:13:47;21.30;99.90
42907;DHT22;28552;51.146;6.576;2023-09-18T10:16:54;21.30;99.90
42907;DHT22;28552;51.146;6.576;2023-09-18T10:20:12;21.40;99.90
42907;DHT22;28552;51.146;6.576;2023-09-18T10:23:27;21.50;99.90
42907;DHT22;28552;51.146;6.576;2023-09-18T10:26:38;21.60;99.90
42907;DHT22;28552;51.146;6.576;2023-09-18T10:29:43;21.70;99.90
42907;DHT22;28552;51.146;6.576;2023-09-18T10:32:46;21.90;99.90
42907;DHT22;28552;51.146;6.576;2023-09-18T10:35:48;22.00;99.90
42907;DHT22;28552;51.146;6.576;2023-09-18T10:38:49;22.10;99.90
42907;DHT22;28552;51.146;6.576;2023-09-18T10:41:53;22.10;99.90
42907;DHT22;28552;51.146;6.576;2023-09-18T10:44:54;22.20;99.90
42907;DHT22;28552;51.146;6.576;2023-09-18T10:47:56;22.30;99.90
42907;DHT22;28552;51.146;6.576;2023-09-18T10:50:57;22.30;99.90
42907;DHT22;28552;51.146;6.576;2023-09-18T10:53:59;22.40;99.90
42907;DHT22;28552;51.146;6.576;2023-09-18T10:57:00;22.50;99.90
42907;DHT22;28552;51.146;6.576;2023-09-18T11:00:03;22.60;99.90
42907;DHT22;28552;51.146;6.576;2023-09-18T11:03:15;22.70;99.90
42907;DHT22;28552;51.146;6.576;2023-09-18T11:06:18;22.80;99.90
42907;DHT22;28552;51.146;6.576;2023-09-18T11:09:24;22.80;99.90
42907;DHT22;28552;51.146;6.576;2023-09-18T11:12:43;22.90;99.90
42907;DHT22;28552;51.146;6.576;2023-09-18T11:15:44;22.90;99.90
42907;DHT22;28552;51.146;6.576;2023-09-18T11:18:47;23.00;99.90
42907;DHT22;28552;51.146;6.576;2023-09-18T11:22:07;23.00;99.90
42907;DHT22;28552;51.146;6.576;2023-09-18T11:28:39;22.90;99.90
42907;DHT22;28552;51.146;6.576;2023-09-18T11:31:43;22.80;99.90
42907;DHT22;28552;51.146;6.576;2023-09-18T11:34:44;22.80;99.90
42907;DHT22;28552;51.146;6.576;2023-09-18T11:37:46;22.90;99.90
42907;DHT22;28552;51.146;6.576;2023-09-18T11:40:47;23.00;99.90
42907;DHT22;28552;51.146;6.576;2023-09-18T11:43:48;23.10;99.90
42907;DHT22;28552;51.146;6.576;2023-09-18T11:46:50;23.20;99.90
42907;DHT22;28552;51.146;6.576;2023-09-18T11:49:55;23.20;99.90
42907;DHT22;28552;51.146;6.576;2023-09-18T11:52:58;23.30;99.90
42907;DHT22;28552;51.146;6.576;2023-09-18T11:55:59;23.30;99.90
42907;DHT22;28552;51.146;6.576;2023-09-18T11:58:59;23.20;99.90
42907;DHT22;28552;51.146;6.576;2023-09-18T12:02:05;23.20;99.90
42907;DHT22;28552;51.146;6.576;2023-09-18T12:05:13;23.10;99.90
42907;DHT22;28552;51.146;6.576;2023-09-18T12:08:14;23.20;99.90
42907;DHT22;28552;51.146;6.576;2023-09-18T12:11:14;23.20;99.90
42907;DHT22;28552;51.146;6.576;2023-09-18T12:14:19;23.30;99.90
42907;DHT22;28552;51.146;6.576;2023-09-18T12:17:20;23.40;99.90
42907;DHT22;28552;51.146;6.576;2023-09-18T12:20:21;23.60;99.90
42907;DHT22;28552;51.146;6.576;2023-09-18T12:23:22;23.60;99.90
42907;DHT22;28552;51.146;6.576;2023-09-18T12:26:25;23.70;99.90
42907;DHT22;28552;51.146;6.576;2023-09-18T12:29:26;23.70;99.90
42907;DHT22;28552;51.146;6.576;2023-09-18T12:32:27;23.70;99.90
42907;DHT22;28552;51.146;6.576;2023-09-18T12:35:27;23.70;99.90
42907;DHT22;28552;51.146;6.576;2023-09-18T12:38:30;23.70;99.90
42907;DHT22;28552;51.146;6.576;2023-09-18T12:41:31;23.80;99.90
42907;DHT22;28552;51.146;6.576;2023-09-18T12:44:32;23.90;99.90
42907;DHT22;28552;51.146;6.576;2023-09-18T12:47:33;24.10;99.90
42907;DHT22;28552;51.146;6.576;2023-09-18T12:50:34;24.10;99.90
42907;DHT22;28552;51.146;6.576;2023-09-18T12:53:35;24.20;99.90
42907;DHT22;28552;51.146;6.576;2023-09-18T12:56:40;24.20;99.90
42907;DHT22;28552;51.146;6.576;2023-09-18T12:59:41;24.20;99.90
42907;DHT22;28552;51.146;6.576;2023-09-18T13:02:44;24.20;99.90
42907;DHT22;28552;51.146;6.576;2023-09-18T13:05:45;24.20;99.90
42907;DHT22;28552;51.146;6.576;2023-09-18T13:08:47;24.30;99.90
42907;DHT22;28552;51.146;6.576;2023-09-18T13:11:56;24.30;99.90
42907;DHT22;28552;51.146;6.576;2023-09-18T13:14:59;24.50;99.90
42907;DHT22;28552;51.146;6.576;2023-09-18T13:18:10;24.50;99.90
42907;DHT22;28552;51.146;6.576;2023-09-18T13:21:11;24.50;99.90
42907;DHT22;28552;51.146;6.576;2023-09-18T13:24:27;24.40;99.90
42907;DHT22;28552;51.146;6.576;2023-09-18T13:27:29;24.30;99.90
42907;DHT22;28552;51.146;6.576;2023-09-18T13:30:31;24.20;99.90
42907;DHT22;28552;51.146;6.576;2023-09-18T13:33:41;24.20;99.90
42907;DHT22;28552;51.146;6.576;2023-09-18T13:36:45;24.10;99.90
42907;DHT22;28552;51.146;6.576;2023-09-18T13:39:46;24.10;99.90
42907;DHT22;28552;51.146;6.576;2023-09-18T13:42:46;24.20;99.90
42907;DHT22;28552;51.146;6.576;2023-09-18T13:45:49;24.30;99.90
42907;DHT22;28552;51.146;6.576;2023-09-18T13:48:53;24.30;99.90
42907;DHT22;28552;51.146;6.576;2023-09-18T13:51:53;24.30;99.90
42907;DHT22;28552;51.146;6.576;2023-09-18T13:54:55;24.40;99.90
42907;DHT22;28552;51.146;6.576;2023-09-18T13:57:55;24.40;99.90
42907;DHT22;28552;51.146;6.576;2023-09-18T14:00:56;24.40;99.90
42907;DHT22;28552;51.146;6.576;2023-09-18T14:03:57;24.40;99.90
42907;DHT22;28552;51.146;6.576;2023-09-18T14:06:57;24.40;99.90
42907;DHT22;28552;51.146;6.576;2023-09-18T14:09:59;24.40;99.90
42907;DHT22;28552;51.146;6.576;2023-09-18T14:13:03;24.40;99.90
42907;DHT22;28552;51.146;6.576;2023-09-18T14:16:04;24.40;99.90
42907;DHT22;28552;51.146;6.576;2023-09-18T14:19:06;24.40;99.90
42907;DHT22;28552;51.146;6.576;2023-09-18T14:22:07;24.40;99.90
42907;DHT22;28552;51.146;6.576;2023-09-18T14:25:08;24.40;99.90
42907;DHT22;28552;51.146;6.576;2023-09-18T14:28:09;24.40;99.90
42907;DHT22;28552;51.146;6.576;2023-09-18T14:31:09;24.50;99.90
42907;DHT22;28552;51.146;6.576;2023-09-18T14:34:10;24.50;99.90
42907;DHT22;28552;51.146;6.576;2023-09-18T14:37:10;24.50;99.90
42907;DHT22;28552;51.146;6.576;2023-09-18T14:40:11;24.50;99.90
42907;DHT22;28552;51.146;6.576;2023-09-18T14:43:12;24.60;99.90
42907;DHT22;28552;51.146;6.576;2023-09-18T14:46:13;24.60;99.90
42907;DHT22;28552;51.146;6.576;2023-09-18T14:49:13;24.60;99.90
42907;DHT22;28552;51.146;6.576;2023-09-18T14:52:15;24.60;99.90
42907;DHT22;28552;51.146;6.576;2023-09-18T14:55:18;24.50;99.90
42907;DHT22;28552;51.146;6.576;2023-09-18T14:58:19;24.60;99.90
42907;DHT22;28552;51.146;6.576;2023-09-18T15:01:22;24.60;99.90
42907;DHT22;28552;51.146;6.576;2023-09-18T15:04:22;24.60;99.90
42907;DHT22;28552;51.146;6.576;2023-09-18T15:07:23;24.60;99.90
42907;DHT22;28552;51.146;6.576;2023-09-18T15:10:24;24.60;99.90
42907;DHT22;28552;51.146;6.576;2023-09-18T15:13:24;24.60;99.90
42907;DHT22;28552;51.146;6.576;2023-09-18T15:16:25;24.60;99.90
42907;DHT22;28552;51.146;6.576;2023-09-18T15:19:26;24.60;99.90
42907;DHT22;28552;51.146;6.576;2023-09-18T15:22:26;24.50;99.90
42907;DHT22;28552;51.146;6.576;2023-09-18T15:25:27;24.50;99.90
42907;DHT22;28552;51.146;6.576;2023-09-18T15:28:28;24.50;99.90
42907;DHT22;28552;51.146;6.576;2023-09-18T15:31:30;24.40;99.90
42907;DHT22;28552;51.146;6.576;2023-09-18T15:34:30;24.40;99.90
42907;DHT22;28552;51.146;6.576;2023-09-18T15:37:31;24.30;99.90
42907;DHT22;28552;51.146;6.576;2023-09-18T15:40:32;24.30;99.90
42907;DHT22;28552;51.146;6.576;2023-09-18T15:43:33;24.20;99.90
42907;DHT22;28552;51.146;6.576;2023-09-18T15:46:33;24.20;99.90
42907;DHT22;28552;51.146;6.576;2023-09-18T15:49:34;24.10;99.90
42907;DHT22;28552;51.146;6.576;2023-09-18T15:52:36;24.10;99.90
42907;DHT22;28552;51.146;6.576;2023-09-18T15:55:36;23.90;99.90
42907;DHT22;28552;51.146;6.576;2023-09-18T15:58:38;23.90;99.90
42907;DHT22;28552;51.146;6.576;2023-09-18T16:01:38;23.90;99.90
42907;DHT22;28552;51.146;6.576;2023-09-18T16:04:40;23.90;99.90
42907;DHT22;28552;51.146;6.576;2023-09-18T16:07:40;24.00;99.90
42907;DHT22;28552;51.146;6.576;2023-09-18T16:10:42;24.00;99.90
42907;DHT22;28552;51.146;6.576;2023-09-18T16:13:43;24.00;99.90
42907;DHT22;28552;51.146;6.576;2023-09-18T16:16:43;23.90;99.90
42907;DHT22;28552;51.146;6.576;2023-09-18T16:19:44;23.80;99.90
42907;DHT22;28552;51.146;6.576;2023-09-18T16:22:45;23.70;99.90
42907;DHT22;28552;51.146;6.576;2023-09-18T16:25:47;23.70;99.90
42907;DHT22;28552;51.146;6.576;2023-09-18T16:28:47;23.50;99.90
42907;DHT22;28552;51.146;6.576;2023-09-18T16:31:48;23.50;99.90
42907;DHT22;28552;51.146;6.576;2023-09-18T16:34:49;23.50;99.90
42907;DHT22;28552;51.146;6.576;2023-09-18T16:37:50;23.40;99.90
42907;DHT22;28552;51.146;6.576;2023-09-18T16:40:50;23.30;99.90
42907;DHT22;28552;51.146;6.576;2023-09-18T16:43:51;23.20;99.90
42907;DHT22;28552;51.146;6.576;2023-09-18T16:46:51;23.10;99.90
42907;DHT22;28552;51.146;6.576;2023-09-18T16:49:54;23.00;99.90
42907;DHT22;28552;51.146;6.576;2023-09-18T16:52:55;23.00;99.90
42907;DHT22;28552;51.146;6.576;2023-09-18T16:55:55;22.90;99.90
42907;DHT22;28552;51.146;6.576;2023-09-18T16:58:56;22.80;99.90
42907;DHT22;28552;51.146;6.576;2023-09-18T17:01:56;22.60;99.90
42907;DHT22;28552;51.146;6.576;2023-09-18T17:04:57;22.60;99.90
42907;DHT22;28552;51.146;6.576;2023-09-18T17:07:57;22.50;99.90
42907;DHT22;28552;51.146;6.576;2023-09-18T17:10:58;22.50;99.90
42907;DHT22;28552;51.146;6.576;2023-09-18T17:13:59;22.40;99.90
42907;DHT22;28552;51.146;6.576;2023-09-18T17:17:01;22.40;99.90
42907;DHT22;28552;51.146;6.576;2023-09-18T17:20:01;22.40;99.90
42907;DHT22;28552;51.146;6.576;2023-09-18T17:23:04;22.30;99.90
42907;DHT22;28552;51.146;6.576;2023-09-18T17:26:04;22.30;99.90
42907;DHT22;28552;51.146;6.576;2023-09-18T17:29:05;22.30;99.90
42907;DHT22;28552;51.146;6.576;2023-09-18T17:32:06;22.20;99.90
42907;DHT22;28552;51.146;6.576;2023-09-18T17:35:07;21.50;99.90
42907;DHT22;28552;51.146;6.576;2023-09-18T17:38:07;19.40;99.90
42907;DHT22;28552;51.146;6.576;2023-09-18T17:41:08;17.70;99.90
42907;DHT22;28552;51.146;6.576;2023-09-18T17:44:08;16.70;99.90
42907;DHT22;28552;51.146;6.576;2023-09-18T17:47:11;16.30;99.90
42907;DHT22;28552;51.146;6.576;2023-09-18T17:50:11;16.00;99.90
42907;DHT22;28552;51.146;6.576;2023-09-18T17:53:13;15.90;99.90
42907;DHT22;28552;51.146;6.576;2023-09-18T17:56:15;16.00;99.90
42907;DHT22;28552;51.146;6.576;2023-09-18T17:59:15;16.10;99.90
42907;DHT22;28552;51.146;6.576;2023-09-18T18:02:16;16.20;99.90
42907;DHT22;28552;51.146;6.576;2023-09-18T18:05:17;16.20;99.90
42907;DHT22;28552;51.146;6.576;2023-09-18T18:08:18;16.20;99.90
42907;DHT22;28552;51.146;6.576;2023-09-18T18:11:19;16.10;99.90
42907;DHT22;28552;51.146;6.576;2023-09-18T18:14:21;16.10;99.90
42907;DHT22;28552;51.146;6.576;2023-09-18T18:17:22;16.20;99.90
42907;DHT22;28552;51.146;6.576;2023-09-18T18:20:23;16.20;99.90
42907;DHT22;28552;51.146;6.576;2023-09-18T18:23:23;16.30;99.90
42907;DHT22;28552;51.146;6.576;2023-09-18T18:26:24;16.40;99.90
42907;DHT22;28552;51.146;6.576;2023-09-18T18:29:27;16.40;99.90
42907;DHT22;28552;51.146;6.576;2023-09-18T18:32:28;16.40;99.90
42907;DHT22;28552;51.146;6.576;2023-09-18T18:35:29;16.40;99.90
42907;DHT22;28552;51.146;6.576;2023-09-18T18:38:30;16.50;99.90
42907;DHT22;28552;51.146;6.576;2023-09-18T18:41:30;16.60;99.90
42907;DHT22;28552;51.146;6.576;2023-09-18T18:44:31;16.60;99.90
42907;DHT22;28552;51.146;6.576;2023-09-18T18:47:32;16.60;99.90
42907;DHT22;28552;51.146;6.576;2023-09-18T18:50:33;16.60;99.90
42907;DHT22;28552;51.146;6.576;2023-09-18T18:53:35;16.60;99.90
42907;DHT22;28552;51.146;6.576;2023-09-18T18:56:36;16.50;99.90
42907;DHT22;28552;51.146;6.576;2023-09-18T18:59:36;16.50;99.90
42907;DHT22;28552;51.146;6.576;2023-09-18T19:02:38;16.50;99.90
42907;DHT22;28552;51.146;6.576;2023-09-18T19:05:40;16.50;99.90
42907;DHT22;28552;51.146;6.576;2023-09-18T19:08:42;16.60;99.90
42907;DHT22;28552;51.146;6.576;2023-09-18T19:11:42;16.60;99.90
42907;DHT22;28552;51.146;6.576;2023-09-18T19:14:43;16.50;99.90
42907;DHT22;28552;51.146;6.576;2023-09-18T19:17:43;16.60;99.90